Time;durP1;ratioP1;P1;durP2;ratioP2;P2;SDS_P1;SDS_P2;PMS_P1;PMS_P2;Temp;Humidity;BMP_temperature;BMP_pressure;BME280_temperature;BME280_humidity;BME280_pressure;Samples;Min_cycle;Max_cycle;Signal;HPM_P1;HPM_P2
2022/07/27 04:00:58;;;;;;;4.70;3.10;;;18.30;99.90;;;;;;5815755;23;20508;-73
2022/07/27 04:03:25;;;;;;;3.90;3.13;;;18.30;99.90;;;;;;5045519;28;20461;-73
2022/07/27 04:05:52;;;;;;;5.33;3.60;;;18.30;99.90;;;;;;5044897;28;20449;-73
2022/07/27 04:08:20;;;;;;;6.17;4.03;;;18.30;99.90;;;;;;5045570;28;20457;-72
2022/07/27 04:10:47;;;;;;;6.03;3.40;;;18.20;99.90;;;;;;5040896;28;20501;-73
2022/07/27 04:13:14;;;;;;;6.30;3.97;;;18.20;99.90;;;;;;5025902;28;20468;-73
2022/07/27 04:15:40;;;;;;;4.03;3.53;;;18.20;99.90;;;;;;5024779;28;20454;-72
2022/07/27 04:18:09;;;;;;;3.50;3.20;;;18.20;99.90;;;;;;5025702;28;20466;-73
2022/07/27 04:20:36;;;;;;;3.47;3.03;;;18.10;99.90;;;;;;5025494;28;20835;-73
2022/07/27 04:23:03;;;;;;;5.57;3.67;;;18.10;99.90;;;;;;5025582;28;20468;-73
2022/07/27 04:25:30;;;;;;;6.07;3.77;;;18.10;99.90;;;;;;5024685;28;20458;-73
2022/07/27 04:27:57;;;;;;;4.10;3.53;;;18.00;99.90;;;;;;5025176;28;21251;-73
2022/07/27 04:30:24;;;;;;;3.80;3.27;;;18.10;99.90;;;;;;5025418;28;20457;-73
2022/07/27 04:32:51;;;;;;;4.50;3.20;;;18.10;99.90;;;;;;5024965;28;20465;-73
2022/07/27 04:35:19;;;;;;;3.50;3.20;;;18.10;99.90;;;;;;5024337;28;21462;-73
2022/07/27 04:37:46;;;;;;;4.30;2.80;;;18.20;99.90;;;;;;5025294;28;20454;-73
2022/07/27 04:40:13;;;;;;;4.93;3.50;;;18.10;99.90;;;;;;5025195;28;20524;-73
2022/07/27 04:42:40;;;;;;;6.37;3.43;;;18.20;99.90;;;;;;5025041;28;20462;-73
2022/07/27 04:45:07;;;;;;;4.00;3.13;;;18.20;99.90;;;;;;5024574;28;21260;-73
2022/07/27 04:47:34;;;;;;;6.17;3.63;;;18.20;99.90;;;;;;5025223;28;20468;-73
2022/07/27 04:50:01;;;;;;;5.83;3.10;;;18.30;99.90;;;;;;5024605;28;20462;-73
2022/07/27 04:52:29;;;;;;;4.23;3.23;;;18.30;99.90;;;;;;5025921;28;21221;-73
2022/07/27 04:54:56;;;;;;;3.97;3.00;;;18.40;99.90;;;;;;5027760;28;20466;-73
2022/07/27 04:57:23;;;;;;;6.10;3.87;;;18.40;99.90;;;;;;5028794;28;21160;-73
2022/07/27 04:59:50;;;;;;;4.47;4.00;;;18.40;99.90;;;;;;5028891;28;20544;-73
2022/07/27 05:02:16;;;;;;;6.67;3.60;;;18.40;99.90;;;;;;5028473;28;20477;-73
2022/07/27 05:04:43;;;;;;;5.27;3.70;;;18.40;99.90;;;;;;5028168;28;20464;-73
2022/07/27 05:07:10;;;;;;;3.97;3.57;;;18.40;99.90;;;;;;5029016;28;20462;-73
2022/07/27 05:09:38;;;;;;;3.50;3.20;;;18.40;99.90;;;;;;5028358;28;20470;-73
2022/07/27 05:12:05;;;;;;;4.17;3.20;;;18.50;99.90;;;;;;5027934;28;20497;-67
2022/07/27 05:14:32;;;;;;;4.30;3.20;;;18.50;99.90;;;;;;5028277;28;20464;-68
2022/07/27 05:16:59;;;;;;;5.93;3.17;;;18.50;99.90;;;;;;5028952;28;20473;-68
2022/07/27 05:19:26;;;;;;;5.10;3.60;;;18.50;99.90;;;;;;5028704;28;20460;-67
2022/07/27 05:21:53;;;;;;;4.07;3.67;;;18.50;99.90;;;;;;5028220;28;20868;-67
2022/07/27 05:24:19;;;;;;;4.40;3.43;;;18.50;99.90;;;;;;5027495;28;20458;-69
2022/07/27 05:26:48;;;;;;;4.10;3.70;;;18.50;99.90;;;;;;5028720;28;21143;-67
2022/07/27 05:29:14;;;;;;;5.47;3.80;;;18.50;99.90;;;;;;5028284;28;20458;-67
2022/07/27 05:31:41;;;;;;;5.87;3.73;;;18.50;99.90;;;;;;5028375;28;20497;-69
2022/07/27 05:34:08;;;;;;;5.43;3.47;;;18.50;99.90;;;;;;5028065;28;20456;-67
2022/07/27 05:36:35;;;;;;;5.27;3.43;;;18.50;99.90;;;;;;5028660;28;20460;-74
2022/07/27 05:39:02;;;;;;;5.57;4.00;;;18.60;99.90;;;;;;5028203;28;20583;-74
2022/07/27 05:41:29;;;;;;;5.43;4.27;;;18.50;99.90;;;;;;5028574;28;20509;-74
2022/07/27 05:43:57;;;;;;;5.10;4.40;;;18.50;99.90;;;;;;5028273;28;20461;-74
2022/07/27 05:46:24;;;;;;;5.40;3.67;;;18.60;99.90;;;;;;5027686;28;20470;-75
2022/07/27 05:48:50;;;;;;;4.30;3.70;;;18.60;99.90;;;;;;5027712;28;20961;-74
2022/07/27 05:51:17;;;;;;;5.50;4.23;;;18.60;99.90;;;;;;5027975;28;20507;-71
2022/07/27 05:53:44;;;;;;;5.77;3.80;;;18.60;99.90;;;;;;5027866;28;20462;-74
2022/07/27 05:56:11;;;;;;;5.83;4.73;;;18.60;99.90;;;;;;5027256;28;20454;-74
2022/07/27 05:58:38;;;;;;;4.67;4.00;;;18.60;99.90;;;;;;5028149;28;20565;-74
2022/07/27 06:01:06;;;;;;;3.93;3.53;;;18.60;99.90;;;;;;5027880;28;20583;-74
2022/07/27 06:03:33;;;;;;;5.97;4.50;;;18.60;99.90;;;;;;5026691;28;20912;-74
2022/07/27 06:08:46;;;;;;;4.30;3.37;;;18.70;99.90;;;;;;5001976;28;21405;-74
2022/07/27 06:11:13;;;;;;;4.80;4.20;;;18.70;99.90;;;;;;5028090;28;20494;-74
2022/07/27 06:13:40;;;;;;;10.23;4.50;;;18.70;99.90;;;;;;5027771;28;20493;-74
2022/07/27 06:16:08;;;;;;;5.53;3.90;;;18.70;99.90;;;;;;5026641;28;20468;-75
2022/07/27 06:18:35;;;;;;;5.53;4.10;;;18.80;99.90;;;;;;5027710;28;20458;-74
2022/07/27 06:21:02;;;;;;;9.83;4.67;;;18.80;99.90;;;;;;5027795;28;20474;-74
2022/07/27 06:23:29;;;;;;;4.10;3.73;;;18.80;99.90;;;;;;5027274;28;20557;-75
2022/07/27 06:25:56;;;;;;;6.10;4.43;;;18.90;99.90;;;;;;5026303;28;20469;-75
2022/07/27 06:28:23;;;;;;;10.77;4.40;;;18.90;99.90;;;;;;5024032;28;20447;-75
2022/07/27 06:30:52;;;;;;;5.90;4.70;;;18.90;99.90;;;;;;5017203;28;20836;-74
2022/07/27 06:33:26;;;;;;;5.30;4.80;;;18.90;99.90;;;;;;5019137;28;20462;-74
2022/07/27 06:35:53;;;;;;;7.80;4.90;;;19.00;99.90;;;;;;5018346;28;20537;-75
2022/07/27 06:38:21;;;;;;;5.43;4.60;;;19.00;99.90;;;;;;5016313;28;20453;-74
2022/07/27 06:40:51;;;;;;;5.40;4.60;;;19.00;99.90;;;;;;5017823;28;20462;-74
2022/07/27 06:43:19;;;;;;;7.13;4.77;;;19.00;99.90;;;;;;5017284;28;20536;-74
2022/07/27 06:45:46;;;;;;;4.73;4.23;;;19.00;99.90;;;;;;5017298;28;20451;-74
2022/07/27 06:48:13;;;;;;;5.07;4.57;;;19.10;99.90;;;;;;5017086;28;20967;-74
2022/07/27 06:50:41;;;;;;;5.33;4.83;;;19.10;99.90;;;;;;5007280;28;21272;-74
2022/07/27 06:53:08;;;;;;;4.90;4.27;;;19.10;99.90;;;;;;5007167;28;20499;-74
2022/07/27 06:55:35;;;;;;;5.53;4.60;;;19.20;99.90;;;;;;5007146;28;20455;-75
2022/07/27 06:58:02;;;;;;;5.03;4.53;;;19.20;99.90;;;;;;5026737;28;20466;-75
2022/07/27 07:00:29;;;;;;;7.83;5.00;;;19.20;99.90;;;;;;5026961;28;20488;-74
2022/07/27 07:02:57;;;;;;;5.70;4.47;;;19.20;99.90;;;;;;5020265;28;21020;-74
2022/07/27 07:05:25;;;;;;;7.60;4.87;;;19.30;99.90;;;;;;5015120;28;20562;-74
2022/07/27 07:07:54;;;;;;;4.93;4.43;;;19.30;99.90;;;;;;5026232;28;20461;-74
2022/07/27 07:10:21;;;;;;;5.73;4.70;;;19.30;99.90;;;;;;5026246;28;20549;-74
2022/07/27 07:12:48;;;;;;;5.23;4.10;;;19.30;99.90;;;;;;5026675;28;20501;-74
2022/07/27 07:15:15;;;;;;;5.70;4.60;;;19.40;99.90;;;;;;5025452;28;20465;-74
2022/07/27 07:17:42;;;;;;;5.97;4.50;;;19.40;99.90;;;;;;5026216;28;20891;-74
2022/07/27 07:20:10;;;;;;;8.23;5.50;;;19.40;99.90;;;;;;5015976;28;21352;-74
2022/07/27 07:22:37;;;;;;;5.33;4.83;;;19.50;99.90;;;;;;5016167;28;20470;-74
2022/07/27 07:25:05;;;;;;;5.20;4.70;;;19.50;99.90;;;;;;5005979;28;20459;-74
2022/07/27 07:27:33;;;;;;;7.40;4.53;;;19.60;99.90;;;;;;5013041;28;20466;-74
2022/07/27 07:30:00;;;;;;;5.50;4.60;;;19.60;99.90;;;;;;5006637;28;20574;-74
2022/07/27 07:32:27;;;;;;;7.40;5.00;;;19.60;99.90;;;;;;5006098;28;20995;-74
2022/07/27 07:34:55;;;;;;;16.40;4.60;;;19.70;99.90;;;;;;5005656;28;20900;-74
2022/07/27 07:37:22;;;;;;;6.60;4.40;;;19.70;99.90;;;;;;5021030;28;20536;-74
2022/07/27 07:39:49;;;;;;;4.80;4.30;;;19.70;99.90;;;;;;5025706;28;21375;-74
2022/07/27 07:42:17;;;;;;;6.17;4.30;;;19.80;99.90;;;;;;5026235;28;20474;-75
2022/07/27 07:44:44;;;;;;;5.10;4.50;;;19.80;99.90;;;;;;5025669;28;20465;-74
2022/07/27 07:47:10;;;;;;;7.47;4.60;;;19.90;99.90;;;;;;5025963;28;20492;-74
2022/07/27 07:49:37;;;;;;;4.53;4.13;;;19.90;99.90;;;;;;5026029;28;20465;-67
2022/07/27 07:52:05;;;;;;;5.30;4.53;;;19.90;99.90;;;;;;5026061;28;20581;-67
2022/07/27 07:54:33;;;;;;;8.93;4.50;;;20.00;99.90;;;;;;5025054;28;20487;-67
2022/07/27 07:57:00;;;;;;;5.83;5.30;;;20.00;99.90;;;;;;5025992;28;20464;-67
2022/07/27 07:59:28;;;;;;;5.87;4.40;;;20.10;99.90;;;;;;5025680;28;20473;-67
2022/07/27 08:01:55;;;;;;;6.90;4.77;;;20.10;99.90;;;;;;5025711;28;20492;-67
2022/07/27 08:04:22;;;;;;;6.43;4.30;;;20.10;99.90;;;;;;5025008;28;21266;-67
2022/07/27 08:06:49;;;;;;;4.70;4.30;;;20.20;99.90;;;;;;5025011;28;20457;-67
2022/07/27 08:09:16;;;;;;;5.30;4.20;;;20.10;99.90;;;;;;5025397;28;20461;-67
2022/07/27 08:11:43;;;;;;;6.80;4.30;;;20.20;99.90;;;;;;5025731;28;20500;-67
2022/07/27 08:14:10;;;;;;;4.77;4.37;;;20.20;99.90;;;;;;5024973;28;20536;-67
2022/07/27 08:16:38;;;;;;;5.03;4.53;;;20.30;99.90;;;;;;5025326;28;20934;-67
2022/07/27 08:19:05;;;;;;;5.33;4.23;;;20.40;99.90;;;;;;5025674;28;20462;-67
2022/07/27 08:21:32;;;;;;;6.43;4.70;;;20.50;99.90;;;;;;5025558;28;20486;-67
2022/07/27 08:23:59;;;;;;;5.83;4.53;;;20.50;99.90;;;;;;5024905;28;21021;-68
2022/07/27 08:26:26;;;;;;;6.33;4.47;;;20.50;99.90;;;;;;5024768;28;21199;-68
2022/07/27 08:28:53;;;;;;;4.70;3.87;;;20.60;99.90;;;;;;5025713;28;20465;-75
2022/07/27 08:31:20;;;;;;;4.33;3.93;;;20.70;99.90;;;;;;5025612;28;20517;-75
2022/07/27 08:33:48;;;;;;;5.33;4.50;;;20.70;99.90;;;;;;5025271;28;20497;-75
2022/07/27 08:36:14;;;;;;;4.47;4.03;;;20.80;99.90;;;;;;5024501;28;21175;-74
2022/07/27 08:38:41;;;;;;;5.43;3.87;;;20.90;99.90;;;;;;5025445;28;20462;-74
2022/07/27 08:41:11;;;;;;;4.30;3.90;;;20.90;99.90;;;;;;5025006;28;20496;-74
2022/07/27 08:43:39;;;;;;;5.30;4.40;;;21.00;99.90;;;;;;5025491;28;20458;-74
2022/07/27 08:46:06;;;;;;;6.33;4.20;;;21.00;99.90;;;;;;5024381;28;20954;-73
2022/07/27 08:48:33;;;;;;;8.60;4.20;;;21.00;99.90;;;;;;5025094;28;20842;-74
2022/07/27 08:51:02;;;;;;;5.30;4.57;;;21.10;99.90;;;;;;5025387;28;20588;-73
2022/07/27 08:53:31;;;;;;;4.90;4.40;;;21.10;99.90;;;;;;5024361;28;21095;-69
2022/07/27 08:55:58;;;;;;;4.60;4.20;;;21.20;99.90;;;;;;5008761;28;20529;-70
2022/07/27 08:58:26;;;;;;;5.93;4.47;;;21.20;99.90;;;;;;5024788;28;21006;-70
2022/07/27 09:00:53;;;;;;;4.10;3.70;;;21.30;99.90;;;;;;5014493;28;20489;-70
2022/07/27 09:03:21;;;;;;;4.77;4.13;;;21.40;99.90;;;;;;5017925;28;20460;-70
2022/07/27 09:05:51;;;;;;;4.97;4.40;;;21.40;99.90;;;;;;5024489;28;20462;-69
2022/07/27 09:08:22;;;;;;;4.40;4.00;;;21.50;99.90;;;;;;5024354;28;20451;-69
2022/07/27 09:10:50;;;;;;;5.43;3.80;;;21.60;99.90;;;;;;5012547;28;20486;-69
2022/07/27 09:13:20;;;;;;;3.77;3.47;;;21.70;99.90;;;;;;5012004;28;20478;-69
2022/07/27 09:15:48;;;;;;;4.90;3.50;;;21.70;99.90;;;;;;5027254;28;20823;-70
2022/07/27 09:18:19;;;;;;;5.43;4.20;;;21.80;99.90;;;;;;5027732;28;20472;-69
2022/07/27 09:20:46;;;;;;;5.40;4.00;;;21.90;99.90;;;;;;5027885;28;20509;-75
2022/07/27 09:23:27;;;;;;;5.13;4.03;;;22.00;99.90;;;;;;5028062;28;20446;-75
2022/07/27 09:26:13;;;;;;;5.13;3.70;;;21.90;99.90;;;;;;5008101;28;20451;-74
2022/07/27 09:28:40;;;;;;;5.67;3.83;;;22.00;99.90;;;;;;5009256;28;20467;-75
2022/07/27 09:31:09;;;;;;;6.73;4.43;;;22.00;99.90;;;;;;5024208;28;20478;-74
2022/07/27 09:33:44;;;;;;;5.47;3.97;;;22.10;99.90;;;;;;5026806;28;20544;-75
2022/07/27 09:36:11;;;;;;;5.00;3.57;;;22.10;99.90;;;;;;5027081;28;20468;-75
2022/07/27 09:38:51;;;;;;;5.70;3.90;;;22.10;99.90;;;;;;5032584;28;20454;-75
2022/07/27 09:41:19;;;;;;;4.30;3.90;;;22.20;99.90;;;;;;5032247;28;20513;-75
2022/07/27 09:43:47;;;;;;;4.40;4.00;;;22.20;99.90;;;;;;5032966;28;21138;-75
2022/07/27 09:46:15;;;;;;;3.90;3.40;;;22.30;99.90;;;;;;5032891;28;20458;-75
2022/07/27 09:48:42;;;;;;;4.17;3.77;;;22.30;99.90;;;;;;5034231;28;20457;-75
2022/07/27 09:51:11;;;;;;;5.37;3.87;;;22.40;99.90;;;;;;5029381;28;20481;-76
2022/07/27 09:53:39;;;;;;;5.53;3.70;;;22.50;99.90;;;;;;5028933;28;20499;-75
2022/07/27 09:56:08;;;;;;;4.07;3.67;;;22.60;99.90;;;;;;5029053;28;20466;-75
2022/07/27 09:58:40;;;;;;;4.73;4.20;;;22.60;99.90;;;;;;5031522;28;21110;-75
2022/07/27 10:01:07;;;;;;;3.70;3.40;;;22.70;99.90;;;;;;5028424;28;20482;-75
2022/07/27 10:03:34;;;;;;;5.00;3.70;;;22.80;99.90;;;;;;5028970;28;20802;-75
2022/07/27 10:06:02;;;;;;;4.57;3.23;;;22.90;99.90;;;;;;5028603;28;20474;-75
2022/07/27 10:08:29;;;;;;;4.10;3.70;;;22.90;99.90;;;;;;5028699;28;20838;-76
2022/07/27 10:10:57;;;;;;;4.40;3.50;;;23.00;99.90;;;;;;5029113;28;20482;-75
2022/07/27 10:13:24;;;;;;;4.20;3.00;;;23.10;99.90;;;;;;5028797;28;20498;-75
2022/07/27 10:15:51;;;;;;;6.33;4.00;;;23.10;99.90;;;;;;5027991;28;20848;-75
2022/07/27 10:18:27;;;;;;;5.30;3.60;;;23.10;99.90;;;;;;5030056;28;20466;-75
2022/07/27 10:21:03;;;;;;;5.10;3.30;;;23.20;99.90;;;;;;5029318;28;20484;-74
2022/07/27 10:23:33;;;;;;;6.27;3.83;;;23.30;99.90;;;;;;5029496;28;20469;-74
2022/07/27 10:26:19;;;;;;;6.30;3.10;;;23.30;99.90;;;;;;5028927;28;20537;-74
2022/07/27 10:28:55;;;;;;;5.03;3.17;;;23.30;99.90;;;;;;5029636;28;20461;-75
2022/07/27 10:31:23;;;;;;;3.73;2.97;;;23.40;99.90;;;;;;5029510;28;20478;-76
2022/07/27 10:33:52;;;;;;;6.30;3.57;;;23.40;99.90;;;;;;5027768;28;20493;-73
2022/07/27 10:36:52;;;;;;;5.37;3.27;;;23.50;99.90;;;;;;5027309;28;20459;-74
2022/07/27 10:39:33;;;;;;;3.13;2.83;;;23.60;99.90;;;;;;5027856;28;20474;-74
2022/07/27 10:42:21;;;;;;;3.83;3.17;;;23.60;99.90;;;;;;5028174;28;20983;-75
2022/07/27 10:45:05;;;;;;;2.60;2.40;;;23.60;99.90;;;;;;5027564;28;20462;-74
2022/07/27 10:47:34;;;;;;;3.43;3.10;;;23.70;99.90;;;;;;5027162;28;20533;-74
2022/07/27 10:50:25;;;;;;;2.83;2.60;;;23.70;99.90;;;;;;5026940;28;20764;-75
2022/07/27 10:52:53;;;;;;;3.80;3.00;;;23.70;99.90;;;;;;5027556;28;20486;-74
2022/07/27 10:55:46;;;;;;;3.23;2.87;;;23.80;99.90;;;;;;5026580;28;20540;-75
2022/07/27 10:58:46;;;;;;;4.30;2.70;;;23.80;99.90;;;;;;5026571;28;20493;-76
2022/07/27 11:01:14;;;;;;;6.40;2.83;;;23.80;99.90;;;;;;5026635;28;20830;-74
2022/07/27 11:03:46;;;;;;;7.50;3.63;;;23.90;99.90;;;;;;5027210;28;20969;-74
2022/07/27 11:06:20;;;;;;;3.93;2.57;;;24.00;99.90;;;;;;5026771;28;20500;-76
2022/07/27 11:08:49;;;;;;;3.37;2.63;;;24.00;99.90;;;;;;5027288;28;20441;-74
2022/07/27 11:11:18;;;;;;;7.17;3.30;;;23.90;99.90;;;;;;5026612;28;20516;-74
2022/07/27 11:13:49;;;;;;;7.27;3.20;;;24.00;99.90;;;;;;5026686;28;20517;-74
2022/07/27 11:16:17;;;;;;;3.40;2.50;;;24.10;99.90;;;;;;5026821;28;20445;-75
2022/07/27 11:18:52;;;;;;;2.90;2.60;;;24.20;99.90;;;;;;5028262;28;20442;-74
2022/07/27 11:21:21;;;;;;;3.67;2.87;;;24.30;99.90;;;;;;5027698;28;20481;-75
2022/07/27 11:23:50;;;;;;;2.67;2.40;;;24.30;99.90;;;;;;5027639;28;20464;-74
2022/07/27 11:26:18;;;;;;;4.57;2.57;;;24.40;99.90;;;;;;5026993;28;20491;-75
2022/07/27 11:28:47;;;;;;;3.53;2.53;;;24.40;99.90;;;;;;5026892;28;20469;-74
2022/07/27 11:31:14;;;;;;;3.50;2.93;;;24.50;99.90;;;;;;5026909;28;20478;-75
2022/07/27 11:33:53;;;;;;;3.57;2.80;;;24.60;99.90;;;;;;5026506;28;21042;-75
2022/07/27 11:36:20;;;;;;;2.47;2.27;;;24.60;99.90;;;;;;5025566;28;20987;-75
2022/07/27 11:38:50;;;;;;;3.93;2.47;;;24.80;99.90;;;;;;5027020;28;20468;-69
2022/07/27 11:41:25;;;;;;;4.00;2.43;;;24.80;99.90;;;;;;5026370;28;20981;-69
2022/07/27 11:43:55;;;;;;;4.10;2.40;;;25.00;99.90;;;;;;5026837;28;20540;-70
2022/07/27 11:46:24;;;;;;;3.13;2.47;;;25.00;99.90;;;;;;5025908;28;20466;-72
2022/07/27 11:48:56;;;;;;;3.60;2.20;;;25.00;99.90;;;;;;5026993;28;20462;-69
2022/07/27 11:51:24;;;;;;;4.60;2.50;;;25.00;99.90;;;;;;5025677;28;20926;-70
2022/07/27 11:53:57;;;;;;;2.20;2.00;;;25.10;99.90;;;;;;5012756;28;20483;-67
2022/07/27 11:56:24;;;;;;;2.10;1.87;;;25.10;99.90;;;;;;5006248;28;20513;-68
2022/07/27 11:59:08;;;;;;;3.20;2.40;;;25.20;99.90;;;;;;5006361;28;20463;-66
2022/07/27 12:01:37;;;;;;;2.50;2.30;;;25.20;99.90;;;;;;5011858;28;20561;-70
2022/07/27 12:04:11;;;;;;;3.57;2.07;;;25.20;99.90;;;;;;5025469;28;20461;-73
2022/07/27 12:06:40;;;;;;;3.40;2.40;;;25.30;99.90;;;;;;5025995;28;20449;-75
2022/07/27 12:09:09;;;;;;;4.17;2.37;;;25.30;99.90;;;;;;5025970;28;20462;-74
2022/07/27 12:11:52;;;;;;;3.90;2.07;;;25.40;99.90;;;;;;5025585;28;20486;-75
2022/07/27 12:14:28;;;;;;;2.37;2.17;;;25.40;99.90;;;;;;5024855;28;20504;-74
2022/07/27 12:17:07;;;;;;;3.63;2.00;;;25.50;99.90;;;;;;5025786;28;20454;-73
2022/07/27 12:19:34;;;;;;;4.10;2.10;;;25.50;99.90;;;;;;5023271;28;20470;-74
2022/07/27 12:22:01;;;;;;;3.60;2.10;;;25.60;99.90;;;;;;5020998;28;20481;-75
2022/07/27 12:24:36;;;;;;;2.17;1.70;;;25.70;99.90;;;;;;5024748;28;20508;-75
2022/07/27 12:27:06;;;;;;;3.67;2.03;;;25.80;99.90;;;;;;5016237;28;20465;-74
2022/07/27 12:29:49;;;;;;;3.33;1.93;;;25.90;99.90;;;;;;5005852;28;20533;-75
2022/07/27 12:32:16;;;;;;;2.93;2.07;;;26.00;99.90;;;;;;5016044;28;20560;-75
2022/07/27 12:34:43;;;;;;;2.13;1.80;;;26.10;99.90;;;;;;5024701;28;20621;-76
2022/07/27 12:37:17;;;;;;;3.33;2.17;;;26.20;99.90;;;;;;5026161;28;20540;-75
2022/07/27 12:39:45;;;;;;;2.40;1.90;;;26.30;99.90;;;;;;5025139;28;20464;-76
2022/07/27 12:42:16;;;;;;;2.67;1.90;;;26.40;99.90;;;;;;5024963;28;20481;-76
2022/07/27 12:44:45;;;;;;;3.53;1.90;;;26.50;99.90;;;;;;5024104;28;20442;-76
2022/07/27 12:50:06;;;;;;;5.70;2.10;;;26.60;99.90;;;;;;5024379;28;20433;-76
2022/07/27 12:52:34;;;;;;;4.20;1.90;;;26.70;99.90;;;;;;5024592;28;20581;-76
2022/07/27 12:55:01;;;;;;;3.83;1.63;;;26.70;99.90;;;;;;5023744;28;20509;-75
2022/07/27 12:57:28;;;;;;;4.77;1.87;;;26.80;99.90;;;;;;5024470;28;20472;-76
2022/07/27 12:59:58;;;;;;;3.00;2.00;;;26.80;99.90;;;;;;5024822;28;20466;-74
2022/07/27 13:02:24;;;;;;;3.20;1.80;;;26.90;99.90;;;;;;5024287;28;21286;-75
2022/07/27 13:04:51;;;;;;;5.83;1.53;;;26.90;99.90;;;;;;5023765;28;20452;-75
2022/07/27 13:07:18;;;;;;;2.90;1.50;;;26.90;99.90;;;;;;5024207;28;21062;-76
2022/07/27 13:09:46;;;;;;;2.80;1.90;;;26.90;99.90;;;;;;5023940;28;20454;-75
2022/07/27 13:12:13;;;;;;;5.30;1.90;;;26.90;99.90;;;;;;5024252;28;21243;-73
2022/07/27 13:14:40;;;;;;;2.87;1.80;;;26.90;99.90;;;;;;5028472;28;20491;-76
2022/07/27 13:17:08;;;;;;;1.70;1.60;;;27.00;99.90;;;;;;5028263;28;20458;-70
2022/07/27 13:19:35;;;;;;;2.60;1.70;;;27.00;99.90;;;;;;5027490;28;21217;-70
2022/07/27 13:22:02;;;;;;;3.90;1.80;;;27.10;99.90;;;;;;5027977;28;20481;-71
2022/07/27 13:24:29;;;;;;;2.57;1.83;;;27.10;99.90;;;;;;5027274;28;20457;-70
2022/07/27 13:26:56;;;;;;;2.53;2.07;;;27.10;99.90;;;;;;5027739;28;20548;-71
2022/07/27 13:29:22;;;;;;;2.80;1.83;;;27.20;99.90;;;;;;5027750;28;20468;-71
2022/07/27 13:31:49;;;;;;;2.20;1.67;;;27.10;99.90;;;;;;5027540;28;20477;-70
2022/07/27 13:34:17;;;;;;;3.10;1.63;;;27.00;99.90;;;;;;5028398;28;20535;-71
2022/07/27 13:36:44;;;;;;;2.10;1.60;;;27.00;99.90;;;;;;5017496;28;20451;-69
2022/07/27 13:39:11;;;;;;;3.40;2.30;;;27.00;99.90;;;;;;5027920;28;20469;-68
2022/07/27 13:41:39;;;;;;;3.50;2.27;;;27.00;99.90;;;;;;5027933;28;20477;-70
2022/07/27 13:44:07;;;;;;;2.37;1.90;;;26.90;99.90;;;;;;5028776;28;20454;-70
2022/07/27 13:46:34;;;;;;;3.03;1.97;;;27.00;99.90;;;;;;5018252;28;20457;-69
2022/07/27 13:49:02;;;;;;;3.57;1.60;;;27.00;99.90;;;;;;5016196;28;20450;-70
2022/07/27 13:51:30;;;;;;;2.60;1.60;;;27.00;99.90;;;;;;5018699;28;20484;-71
2022/07/27 13:53:57;;;;;;;3.93;2.10;;;27.00;99.90;;;;;;5016276;28;20477;-69
2022/07/27 13:56:27;;;;;;;2.00;1.50;;;27.00;99.90;;;;;;5015422;28;20943;-69
2022/07/27 13:58:56;;;;;;;2.43;1.50;;;27.00;99.90;;;;;;5020863;28;20478;-68
2022/07/27 14:01:23;;;;;;;2.03;1.70;;;27.10;99.90;;;;;;5017577;28;20498;-69
2022/07/27 14:03:51;;;;;;;1.73;1.47;;;27.00;99.90;;;;;;5017548;28;21253;-70
2022/07/27 14:06:18;;;;;;;3.00;1.77;;;27.00;99.90;;;;;;5015941;28;20973;-73
2022/07/27 14:08:46;;;;;;;4.43;1.90;;;27.00;99.90;;;;;;5018040;28;20459;-70
2022/07/27 14:11:16;;;;;;;3.00;1.70;;;27.00;99.90;;;;;;5008558;28;20863;-70
2022/07/27 14:13:43;;;;;;;2.77;1.53;;;27.00;99.90;;;;;;5027511;28;20499;-68
2022/07/27 14:16:11;;;;;;;2.00;1.57;;;27.10;99.90;;;;;;5027804;28;20468;-69
2022/07/27 14:18:38;;;;;;;2.80;1.90;;;27.10;99.90;;;;;;5027966;28;20466;-69
2022/07/27 14:21:07;;;;;;;3.70;1.50;;;27.10;99.90;;;;;;5028562;28;20488;-71
2022/07/27 14:23:36;;;;;;;4.00;2.30;;;27.20;99.90;;;;;;5027083;28;20462;-69
2022/07/27 14:26:06;;;;;;;2.17;1.87;;;27.30;99.90;;;;;;5026198;28;20950;-71
2022/07/27 14:28:33;;;;;;;3.50;1.80;;;27.30;99.90;;;;;;5011437;28;20447;-70
2022/07/27 14:31:01;;;;;;;2.20;1.90;;;27.40;99.90;;;;;;5007696;28;20565;-72
2022/07/27 14:33:28;;;;;;;3.60;1.83;;;27.40;99.90;;;;;;5022781;28;20509;-71
2022/07/27 14:35:56;;;;;;;3.70;1.70;;;27.40;99.90;;;;;;5007589;28;20455;-74
2022/07/27 14:38:24;;;;;;;3.97;1.60;;;27.40;99.90;;;;;;5007916;28;20469;-75
2022/07/27 14:40:53;;;;;;;2.33;1.40;;;27.40;99.90;;;;;;5007690;28;20573;-74
2022/07/27 14:43:22;;;;;;;5.70;1.93;;;27.40;99.90;;;;;;5020264;28;20458;-75
2022/07/27 14:45:49;;;;;;;2.73;1.63;;;27.40;99.90;;;;;;5010624;28;21177;-74
2022/07/27 14:48:20;;;;;;;2.17;1.57;;;27.50;99.90;;;;;;5006257;28;20469;-73
2022/07/27 14:50:47;;;;;;;2.43;1.30;;;27.50;99.90;;;;;;5006206;28;21042;-75
2022/07/27 14:53:14;;;;;;;2.03;1.40;;;27.60;99.90;;;;;;5007034;28;20883;-74
2022/07/27 14:55:41;;;;;;;2.30;1.70;;;27.60;99.90;;;;;;5025894;28;20493;-74
2022/07/27 14:58:10;;;;;;;2.90;1.60;;;27.60;99.90;;;;;;5027584;28;20460;-74
2022/07/27 15:00:39;;;;;;;3.23;1.73;;;27.70;99.90;;;;;;5026838;28;20489;-73
2022/07/27 15:03:06;;;;;;;1.60;1.50;;;27.60;99.90;;;;;;5026837;28;20457;-73
2022/07/27 15:05:34;;;;;;;2.20;1.60;;;27.60;99.90;;;;;;5026330;28;20545;-74
2022/07/27 15:08:02;;;;;;;2.80;1.73;;;27.60;99.90;;;;;;5027907;28;20462;-74
2022/07/27 15:10:29;;;;;;;3.50;1.73;;;27.60;99.90;;;;;;5027876;28;20520;-74
2022/07/27 15:12:56;;;;;;;4.53;1.67;;;27.60;99.90;;;;;;5028131;28;20466;-74
2022/07/27 15:15:24;;;;;;;2.60;1.67;;;27.50;99.90;;;;;;5026439;28;21096;-75
2022/07/27 15:17:52;;;;;;;3.23;1.77;;;27.50;99.90;;;;;;5026883;28;20833;-74
2022/07/27 15:20:20;;;;;;;2.03;1.73;;;27.50;99.90;;;;;;5027301;28;20519;-74
2022/07/27 15:22:47;;;;;;;3.60;1.90;;;27.40;99.90;;;;;;5026696;28;20453;-73
2022/07/27 15:25:13;;;;;;;5.10;1.63;;;27.40;99.90;;;;;;5025900;28;20511;-73
2022/07/27 15:27:41;;;;;;;3.23;1.60;;;27.40;99.90;;;;;;5026536;28;20460;-73
2022/07/27 15:30:08;;;;;;;1.90;1.70;;;27.40;99.90;;;;;;5026645;28;20519;-74
2022/07/27 15:32:35;;;;;;;3.90;1.80;;;27.40;99.90;;;;;;5025165;28;20564;-74
2022/07/27 15:35:04;;;;;;;2.93;1.80;;;27.30;99.90;;;;;;5025365;28;20512;-73
2022/07/27 15:37:31;;;;;;;6.20;1.47;;;27.30;99.90;;;;;;5026859;28;20454;-74
2022/07/27 15:40:35;;;;;;;3.87;1.50;;;27.30;99.90;;;;;;5025833;28;20469;-74
2022/07/27 15:42:45;;;;;;;2.80;1.60;;;27.30;99.90;;;;;;5025596;28;20508;-73
2022/07/27 15:45:12;;;;;;;1.97;1.40;;;27.30;99.90;;;;;;5025325;28;21170;-74
2022/07/27 15:47:39;;;;;;;4.73;1.70;;;27.20;99.90;;;;;;5026627;28;20453;-74
2022/07/27 15:50:08;;;;;;;3.97;1.73;;;27.20;99.90;;;;;;5026074;28;20454;-72
2022/07/27 15:52:35;;;;;;;3.90;1.40;;;27.10;99.90;;;;;;5026723;28;20478;-73
2022/07/27 15:55:02;;;;;;;1.70;1.47;;;27.10;99.90;;;;;;5025552;28;20845;-73
2022/07/27 15:57:29;;;;;;;1.73;1.40;;;27.10;99.90;;;;;;5025818;28;20464;-73
2022/07/27 15:59:56;;;;;;;2.33;1.30;;;27.00;99.90;;;;;;5026442;28;20552;-73
2022/07/27 16:02:25;;;;;;;2.20;1.60;;;27.00;99.90;;;;;;5026345;28;20594;-74
2022/07/27 16:04:52;;;;;;;1.63;1.40;;;27.00;99.90;;;;;;5025938;28;20466;-73
2022/07/27 16:07:20;;;;;;;2.00;1.77;;;27.00;99.90;;;;;;5026452;28;20461;-73
2022/07/27 16:09:47;;;;;;;1.97;1.40;;;27.00;99.90;;;;;;5025753;28;20464;-73
2022/07/27 16:12:15;;;;;;;2.27;1.70;;;27.10;99.90;;;;;;5026429;28;20489;-74
2022/07/27 16:14:42;;;;;;;3.40;1.30;;;27.10;99.90;;;;;;5026607;28;20990;-74
2022/07/27 16:17:09;;;;;;;2.53;1.70;;;27.20;99.90;;;;;;5026623;28;20511;-73
2022/07/27 16:19:36;;;;;;;1.90;1.63;;;27.30;99.90;;;;;;5025548;28;20536;-73
2022/07/27 16:22:03;;;;;;;2.93;1.50;;;27.30;99.90;;;;;;5025607;28;21384;-73
2022/07/27 16:24:31;;;;;;;1.40;1.30;;;27.30;99.90;;;;;;5025067;28;20511;-73
2022/07/27 16:26:59;;;;;;;1.30;1.20;;;27.20;99.90;;;;;;5025608;28;20531;-73
2022/07/27 16:29:26;;;;;;;1.67;1.30;;;27.20;99.90;;;;;;5025097;28;20453;-73
2022/07/27 16:31:56;;;;;;;7.67;1.60;;;27.20;99.90;;;;;;5025401;28;20482;-72
2022/07/27 16:34:23;;;;;;;2.57;1.70;;;27.20;99.90;;;;;;5024711;28;20497;-73
2022/07/27 16:36:50;;;;;;;2.70;1.60;;;27.20;99.90;;;;;;5024870;28;20950;-73
2022/07/27 16:39:17;;;;;;;4.73;1.30;;;27.20;99.90;;;;;;5025520;28;20461;-73
2022/07/27 16:41:46;;;;;;;2.90;1.50;;;27.20;99.90;;;;;;5025130;28;21227;-72
2022/07/27 16:44:13;;;;;;;3.83;1.67;;;27.20;99.90;;;;;;5024296;28;20955;-73
2022/07/27 16:46:41;;;;;;;2.57;1.57;;;27.10;99.90;;;;;;5025230;28;20453;-73
2022/07/27 16:49:08;;;;;;;4.23;1.57;;;27.10;99.90;;;;;;5028945;28;20507;-72
2022/07/27 16:51:35;;;;;;;2.43;1.50;;;27.20;99.90;;;;;;5029352;28;20480;-73
2022/07/27 16:54:02;;;;;;;3.20;1.47;;;27.20;99.90;;;;;;5028421;28;20462;-73
2022/07/27 16:56:29;;;;;;;2.87;1.50;;;27.20;99.90;;;;;;5029251;28;20493;-73
2022/07/27 16:58:57;;;;;;;2.23;1.40;;;27.20;99.90;;;;;;5029192;28;20837;-73